createdAt,value
2022-08-17T00:01:57.533Z,53.10
2022-08-17T00:04:09.289Z,53.05
2022-08-17T00:06:18.378Z,53.09
2022-08-17T00:08:26.753Z,53.48
2022-08-17T00:10:30.268Z,52.78
2022-08-17T00:12:44.627Z,52.85
2022-08-17T00:14:50.367Z,53.24
2022-08-17T00:16:56.863Z,53.03
2022-08-17T00:19:08.423Z,52.75
2022-08-17T00:21:13.023Z,52.39
2022-08-17T00:23:18.195Z,52.27
2022-08-17T00:25:22.998Z,51.62
2022-08-17T00:27:26.419Z,52.07
2022-08-17T00:29:29.842Z,52.72
2022-08-17T00:31:34.217Z,52.62
2022-08-17T00:33:40.257Z,51.97
2022-08-17T00:35:44.973Z,51.90
2022-08-17T00:37:48.455Z,52.93
2022-08-17T00:39:52.389Z,52.38
2022-08-17T00:41:57.353Z,52.72
2022-08-17T00:44:04.468Z,52.29
2022-08-17T00:46:12.180Z,52.49
2022-08-17T00:48:29.501Z,51.92
2022-08-17T00:50:35.660Z,51.42
2022-08-17T00:52:44.808Z,51.17
2022-08-17T00:54:52.739Z,51.40
2022-08-17T00:57:01.801Z,50.86
2022-08-17T00:59:08.518Z,51.47
2022-08-17T01:01:13.412Z,50.82
2022-08-17T01:03:27.043Z,51.24
2022-08-17T01:05:32.899Z,51.44
2022-08-17T01:07:37.939Z,50.98
2022-08-17T01:09:42.999Z,51.07
2022-08-17T01:11:52.236Z,51.18
2022-08-17T01:13:57.158Z,51.12
2022-08-17T01:16:05.984Z,51.76
2022-08-17T01:18:12.642Z,51.82
2022-08-17T01:20:16.848Z,52.66
2022-08-17T01:22:24.018Z,51.84
2022-08-17T01:24:27.957Z,51.95
2022-08-17T01:26:34.104Z,52.45
2022-08-17T01:28:54.309Z,51.44
2022-08-17T01:31:02.060Z,52.41
2022-08-17T01:33:05.736Z,52.10
2022-08-17T01:35:09.647Z,52.26
2022-08-17T01:37:15.148Z,51.89
2022-08-17T01:39:24.478Z,51.47
2022-08-17T01:41:28.709Z,51.68
2022-08-17T01:43:39.014Z,51.86
2022-08-17T01:45:46.083Z,51.19
2022-08-17T01:47:50.573Z,51.93
2022-08-17T01:49:54.883Z,51.81
2022-08-17T01:51:58.507Z,51.63
2022-08-17T01:54:06.280Z,51.76
2022-08-17T01:56:15.270Z,51.58
2022-08-17T01:58:19.413Z,52.01
2022-08-17T02:00:23.158Z,51.70
2022-08-17T02:02:30.840Z,51.80
2022-08-17T02:04:35.189Z,51.67
2022-08-17T02:06:52.511Z,51.76
2022-08-17T02:09:02.672Z,52.08
2022-08-17T02:11:11.271Z,52.32
2022-08-17T02:13:17.403Z,51.93
2022-08-17T02:15:21.602Z,52.60
2022-08-17T02:17:25.114Z,52.24
2022-08-17T02:19:28.603Z,52.45
2022-08-17T02:21:32.482Z,52.49
2022-08-17T02:23:41.897Z,52.90
2022-08-17T02:25:48.671Z,53.13
2022-08-17T02:27:52.941Z,52.98
2022-08-17T02:29:57.768Z,53.05
2022-08-17T02:32:01.859Z,53.82
2022-08-17T02:34:06.233Z,53.46
2022-08-17T02:36:10.186Z,52.90
2022-08-17T02:38:13.705Z,53.14
2022-08-17T02:40:17.691Z,52.90
2022-08-17T02:42:42.851Z,52.62
2022-08-17T02:44:46.279Z,52.04
2022-08-17T02:46:51.092Z,52.49
2022-08-17T02:48:54.884Z,51.99
2022-08-17T02:50:58.329Z,52.23
2022-08-17T02:53:04.559Z,52.90
2022-08-17T02:55:13.760Z,52.59
2022-08-17T02:57:17.480Z,53.05
2022-08-17T02:59:20.889Z,52.70
2022-08-17T03:01:24.456Z,52.50
2022-08-17T03:03:29.297Z,53.45
2022-08-17T03:05:34.891Z,53.65
2022-08-17T03:07:39.106Z,53.66
2022-08-17T03:09:42.882Z,53.69
2022-08-17T03:11:46.374Z,53.98
2022-08-17T03:13:50.171Z,54.47
2022-08-17T03:15:53.730Z,54.42
2022-08-17T03:17:57.787Z,53.68
2022-08-17T03:20:02.887Z,54.33
2022-08-17T03:22:37.034Z,54.03
2022-08-17T03:24:29.873Z,53.49
2022-08-17T03:26:33.344Z,54.04
2022-08-17T03:28:36.887Z,53.76
2022-08-17T03:30:41.081Z,54.61
2022-08-17T03:32:48.229Z,54.40
2022-08-17T03:34:51.650Z,53.91
2022-08-17T03:36:56.362Z,53.75
2022-08-17T03:38:59.712Z,54.56
2022-08-17T03:41:03.313Z,55.09
2022-08-17T03:43:09.015Z,56.18
2022-08-17T03:45:16.006Z,56.79
2022-08-17T03:47:38.151Z,55.41
2022-08-17T03:50:02.825Z,56.07
2022-08-17T03:52:39.553Z,55.25
2022-08-17T03:55:01.666Z,54.68
2022-08-17T03:57:07.503Z,55.15
2022-08-17T03:59:20.878Z,55.27
2022-08-17T04:01:26.962Z,55.83
2022-08-17T04:03:30.919Z,55.71
2022-08-17T04:05:34.473Z,55.46
2022-08-17T04:07:39.409Z,55.68
2022-08-17T04:09:43.576Z,56.16
2022-08-17T04:11:47.047Z,56.16
2022-08-17T04:13:50.529Z,57.27
2022-08-17T04:15:59.204Z,55.96
2022-08-17T04:18:02.622Z,55.33
2022-08-17T04:20:07.063Z,55.81
2022-08-17T04:22:10.491Z,55.99
2022-08-17T04:24:36.008Z,56.14
2022-08-17T04:26:53.422Z,56.09
2022-08-17T04:28:58.849Z,56.59
2022-08-17T04:31:02.283Z,55.64
2022-08-17T04:33:08.668Z,54.84
2022-08-17T04:35:12.150Z,54.44
2022-08-17T04:37:15.654Z,54.10
2022-08-17T04:39:19.112Z,53.72
2022-08-17T04:41:41.548Z,54.95
2022-08-17T04:43:49.777Z,53.89
2022-08-17T04:45:57.008Z,54.47
2022-08-17T04:48:01.600Z,53.86
2022-08-17T04:50:05.519Z,54.03
2022-08-17T04:52:08.941Z,54.71
2022-08-17T04:54:32.345Z,54.89
2022-08-17T04:56:37.878Z,54.94
2022-08-17T04:58:41.262Z,54.50
2022-08-17T05:00:44.905Z,54.59
2022-08-17T05:02:50.645Z,54.43
2022-08-17T05:04:54.408Z,54.94
2022-08-17T05:06:58.730Z,55.03
2022-08-17T05:09:02.221Z,55.14
2022-08-17T05:11:06.122Z,55.51
2022-08-17T05:13:15.432Z,55.42
2022-08-17T05:15:18.846Z,54.46
2022-08-17T05:17:22.882Z,54.85
2022-08-17T05:19:26.279Z,54.88
2022-08-17T05:21:30.446Z,54.85
2022-08-17T05:23:42.626Z,54.98
2022-08-17T05:25:48.500Z,55.07
2022-08-17T05:27:54.868Z,54.74
2022-08-17T05:29:59.765Z,55.24
2022-08-17T05:32:38.145Z,53.93
2022-08-17T05:34:32.967Z,53.82
2022-08-17T05:36:42.903Z,54.10
2022-08-17T05:38:47.806Z,54.18
2022-08-17T05:40:51.643Z,55.46
2022-08-17T05:43:05.876Z,55.01
2022-08-17T05:45:12.191Z,54.24
2022-08-17T05:47:15.713Z,53.32
2022-08-17T05:49:27.128Z,52.53
2022-08-17T05:51:46.540Z,52.86
2022-08-17T05:53:57.869Z,53.39
2022-08-17T05:56:11.612Z,53.46
2022-08-17T05:58:42.015Z,54.23
2022-08-17T06:00:59.952Z,53.57
2022-08-17T06:03:26.450Z,53.85
2022-08-17T06:05:58.233Z,52.96
2022-08-17T06:08:13.483Z,51.96
2022-08-17T06:10:26.933Z,51.89
2022-08-17T06:12:40.546Z,52.15
2022-08-17T06:14:58.838Z,52.48
2022-08-17T06:17:07.227Z,52.54
2022-08-17T06:19:15.976Z,52.38
2022-08-17T06:21:23.537Z,52.88
2022-08-17T06:23:37.426Z,52.52
2022-08-17T06:25:46.641Z,52.35
2022-08-17T06:27:54.412Z,52.89
2022-08-17T06:30:01.807Z,53.75
2022-08-17T06:32:10.501Z,52.73
2022-08-17T06:34:16.384Z,52.62
2022-08-17T06:36:33.677Z,52.82
2022-08-17T06:38:49.934Z,53.89
2022-08-17T06:41:06.038Z,53.74
2022-08-17T06:43:22.311Z,53.22
2022-08-17T06:45:31.962Z,53.04
2022-08-17T06:47:44.645Z,53.03
2022-08-17T06:49:55.567Z,52.16
2022-08-17T06:52:08.514Z,51.99
2022-08-17T06:54:20.212Z,52.53
2022-08-17T06:56:53.884Z,52.15
2022-08-17T06:58:59.722Z,51.59
2022-08-17T07:01:09.560Z,51.80
2022-08-17T07:03:21.323Z,52.23
2022-08-17T07:05:31.706Z,51.80
2022-08-17T07:07:56.532Z,51.71
2022-08-17T07:10:01.964Z,52.02
2022-08-17T07:12:16.095Z,51.91
2022-08-17T07:14:37.051Z,52.08
2022-08-17T07:16:46.670Z,51.92
2022-08-17T07:18:54.936Z,51.83
2022-08-17T07:21:08.778Z,52.03
2022-08-17T07:23:21.892Z,52.09
2022-08-17T07:25:25.328Z,52.52
2022-08-17T07:27:31.187Z,52.27
2022-08-17T07:29:43.932Z,52.34
2022-08-17T07:31:47.456Z,52.71
2022-08-17T07:34:06.688Z,52.48
2022-08-17T07:36:29.871Z,52.70
2022-08-17T07:38:35.759Z,52.33
2022-08-17T07:40:41.183Z,52.50
2022-08-17T07:43:01.085Z,52.25
2022-08-17T07:45:30.069Z,52.16
2022-08-17T07:47:51.097Z,52.79
2022-08-17T07:49:56.157Z,52.63
2022-08-17T07:52:24.286Z,52.65
2022-08-17T07:54:33.380Z,52.44
2022-08-17T07:56:43.503Z,52.59
2022-08-17T07:58:48.925Z,52.77
2022-08-17T08:01:08.084Z,52.16
2022-08-17T08:03:26.230Z,52.77
2022-08-17T08:05:49.904Z,53.24
2022-08-17T08:07:56.879Z,52.87
2022-08-17T08:10:10.195Z,52.80
2022-08-17T08:12:25.662Z,52.94
2022-08-17T08:14:39.386Z,52.90
2022-08-17T08:16:59.015Z,53.26
2022-08-17T08:19:03.341Z,53.01
2022-08-17T08:21:14.105Z,53.26
2022-08-17T08:23:26.531Z,53.37
2022-08-17T08:25:41.506Z,53.08
2022-08-17T08:27:54.776Z,53.25
2022-08-17T08:30:06.907Z,53.49
2022-08-17T08:32:20.960Z,53.52
2022-08-17T08:34:58.842Z,53.76
2022-08-17T08:37:17.708Z,54.07
2022-08-17T08:39:32.078Z,54.16
2022-08-17T08:41:45.450Z,54.35
2022-08-17T08:44:00.773Z,54.53
2022-08-17T08:46:13.770Z,54.48
2022-08-17T08:48:58.179Z,54.15
2022-08-17T08:51:06.493Z,54.06
2022-08-17T08:53:26.576Z,54.42
2022-08-17T08:55:41.827Z,54.21
2022-08-17T08:57:51.010Z,54.52
2022-08-17T09:00:07.521Z,54.38
2022-08-17T09:02:25.073Z,54.43
2022-08-17T09:05:13.459Z,54.76
2022-08-17T09:07:28.669Z,54.75
2022-08-17T09:09:45.338Z,54.58
2022-08-17T09:12:02.603Z,54.91
2022-08-17T09:14:21.655Z,54.55
2022-08-17T09:16:30.590Z,54.77
2022-08-17T09:18:59.068Z,54.68
2022-08-17T09:21:04.791Z,55.06
2022-08-17T09:23:14.602Z,55.34
2022-08-17T09:25:26.266Z,55.53
2022-08-17T09:27:34.145Z,55.67
2022-08-17T09:29:43.933Z,55.67
2022-08-17T09:31:55.094Z,55.45
2022-08-17T09:34:01.075Z,55.69
2022-08-17T09:36:10.024Z,55.76
2022-08-17T09:38:24.214Z,55.84
2022-08-17T09:40:34.458Z,55.73
2022-08-17T09:42:46.176Z,55.51
2022-08-17T09:44:58.941Z,55.50
2022-08-17T09:47:09.972Z,55.42
2022-08-17T09:49:25.187Z,55.42
2022-08-17T09:51:34.293Z,56.11
2022-08-17T09:53:39.408Z,56.17
2022-08-17T09:56:04.145Z,55.95
2022-08-17T09:58:20.048Z,56.58
2022-08-17T10:00:31.857Z,56.93
2022-08-17T10:02:51.584Z,56.71
2022-08-17T10:05:02.315Z,56.86
2022-08-17T10:07:13.320Z,57.38
2022-08-17T10:09:26.311Z,57.54
2022-08-17T10:11:54.122Z,58.04
2022-08-17T10:14:24.083Z,57.58
2022-08-17T10:16:41.195Z,57.98
2022-08-17T10:18:50.627Z,58.29
2022-08-17T10:21:16.580Z,57.89
2022-08-17T10:23:46.002Z,57.72
2022-08-17T10:26:13.098Z,57.51
2022-08-17T10:28:28.925Z,57.90
2022-08-17T10:30:37.906Z,58.64
2022-08-17T10:32:49.625Z,58.75
2022-08-17T10:35:17.091Z,59.32
2022-08-17T10:37:44.126Z,59.20
2022-08-17T10:39:54.088Z,59.44
2022-08-17T10:42:01.657Z,59.17
2022-08-17T10:44:39.217Z,58.75
2022-08-17T10:46:54.252Z,59.18
2022-08-17T10:49:39.679Z,59.39
2022-08-17T10:51:43.617Z,59.41
2022-08-17T10:54:00.421Z,59.08
2022-08-17T10:56:21.742Z,58.95
2022-08-17T10:58:28.582Z,58.88
2022-08-17T11:00:59.660Z,58.96
2022-08-17T11:03:16.024Z,58.97
2022-08-17T11:05:50.281Z,58.28
2022-08-17T11:08:07.956Z,58.51
2022-08-17T11:10:34.347Z,57.05
2022-08-17T11:12:51.474Z,57.42
2022-08-17T11:15:04.829Z,57.65
2022-08-17T11:17:21.197Z,57.67
2022-08-17T11:20:30.680Z,58.14
2022-08-17T11:23:07.426Z,58.49
2022-08-17T11:25:16.053Z,56.68
2022-08-17T11:27:27.183Z,56.70
2022-08-17T11:29:36.686Z,56.39
2022-08-17T11:31:44.993Z,56.32
2022-08-17T11:34:04.487Z,56.29
2022-08-17T11:36:18.040Z,57.34
2022-08-17T11:38:31.239Z,57.79
2022-08-17T11:40:47.332Z,57.50
2022-08-17T11:43:04.776Z,56.25
2022-08-17T11:45:31.764Z,55.49
2022-08-17T11:48:27.623Z,54.61
2022-08-17T11:51:06.239Z,55.14
2022-08-17T11:53:48.226Z,54.37
2022-08-17T11:56:08.051Z,55.22
2022-08-17T11:58:40.039Z,56.16
2022-08-17T12:00:57.489Z,55.37
2022-08-17T12:03:24.777Z,55.66
2022-08-17T12:05:35.053Z,55.31
2022-08-17T12:07:43.311Z,55.49
2022-08-17T12:09:50.600Z,55.18
2022-08-17T12:12:12.862Z,54.31
2022-08-17T12:14:40.118Z,53.75
2022-08-17T12:17:00.174Z,52.59
2022-08-17T12:19:06.036Z,52.70
2022-08-17T12:21:23.586Z,52.15
2022-08-17T12:23:36.905Z,51.25
2022-08-17T12:25:46.389Z,50.60
2022-08-17T12:28:05.571Z,49.88
2022-08-17T12:30:14.459Z,49.37
2022-08-17T12:32:21.092Z,49.99
2022-08-17T12:34:27.577Z,50.56
2022-08-17T12:36:33.064Z,51.02
2022-08-17T12:38:38.901Z,50.42
2022-08-17T12:40:54.902Z,50.74
2022-08-17T12:43:05.069Z,50.87
2022-08-17T12:45:22.770Z,50.90
2022-08-17T12:47:29.487Z,50.89
2022-08-17T12:49:36.003Z,51.66
2022-08-17T12:51:44.227Z,50.66
2022-08-17T12:53:55.430Z,50.36
2022-08-17T12:56:00.625Z,48.88
2022-08-17T12:58:07.382Z,48.96
2022-08-17T13:00:17.686Z,48.41
2022-08-17T13:02:40.111Z,47.66
2022-08-17T13:04:44.135Z,47.49
2022-08-17T13:06:51.198Z,48.08
2022-08-17T13:09:11.484Z,47.94
2022-08-17T13:11:20.664Z,47.17
2022-08-17T13:13:27.868Z,47.79
2022-08-17T13:15:36.840Z,47.04
2022-08-17T13:17:40.418Z,46.71
2022-08-17T13:19:50.503Z,46.98
2022-08-17T13:21:56.724Z,47.02
2022-08-17T13:24:02.321Z,47.20
2022-08-17T13:26:09.382Z,47.51
2022-08-17T13:28:18.879Z,47.58
2022-08-17T13:30:40.662Z,47.50
2022-08-17T13:32:47.127Z,49.70
2022-08-17T13:35:12.198Z,50.00
2022-08-17T13:37:32.678Z,51.35
2022-08-17T13:39:42.656Z,50.81
2022-08-17T13:41:48.015Z,50.81
2022-08-17T13:43:51.417Z,49.80
2022-08-17T13:46:09.705Z,49.57
2022-08-17T13:48:23.580Z,49.55
2022-08-17T13:50:27.131Z,49.99
2022-08-17T13:52:38.887Z,48.64
2022-08-17T13:54:42.514Z,48.11
2022-08-17T13:56:57.597Z,47.51
2022-08-17T13:59:04.598Z,48.26
2022-08-17T14:01:31.989Z,48.30
2022-08-17T14:03:35.827Z,47.97
2022-08-17T14:05:40.478Z,48.20
2022-08-17T14:07:44.000Z,47.64
2022-08-17T14:09:51.066Z,48.32
2022-08-17T14:11:58.072Z,46.94
2022-08-17T14:14:01.587Z,47.45
2022-08-17T14:16:05.541Z,47.38
2022-08-17T14:18:10.480Z,47.08
2022-08-17T14:20:15.247Z,47.30
2022-08-17T14:22:23.713Z,48.51
2022-08-17T14:24:29.465Z,49.43
2022-08-17T14:26:33.146Z,51.29
2022-08-17T14:28:37.039Z,52.53
2022-08-17T14:30:46.530Z,52.30
2022-08-17T14:32:51.786Z,53.69
2022-08-17T14:34:57.732Z,52.50
2022-08-17T14:37:01.147Z,52.12
2022-08-17T14:39:05.277Z,52.84
2022-08-17T14:41:08.764Z,52.19
2022-08-17T14:43:12.738Z,52.59
2022-08-17T14:45:29.862Z,51.50
2022-08-17T14:47:38.550Z,50.12
2022-08-17T14:49:42.414Z,50.63
2022-08-17T14:51:47.722Z,50.43
2022-08-17T14:53:51.493Z,51.04
2022-08-17T14:55:54.904Z,51.66
2022-08-17T14:57:58.349Z,51.16
2022-08-17T15:00:02.771Z,50.94
2022-08-17T15:02:06.931Z,51.42
2022-08-17T15:04:18.559Z,51.96
2022-08-17T15:06:22.675Z,51.81
2022-08-17T15:08:28.281Z,51.86
2022-08-17T15:10:32.435Z,52.33
2022-08-17T15:12:36.592Z,51.63
2022-08-17T15:14:40.049Z,50.72
2022-08-17T15:16:43.501Z,50.70
2022-08-17T15:18:47.084Z,50.87
2022-08-17T15:20:50.799Z,51.54
2022-08-17T15:22:55.216Z,51.97
2022-08-17T15:25:06.593Z,51.88
2022-08-17T15:27:11.431Z,51.14
2022-08-17T15:29:15.559Z,50.87
2022-08-17T15:31:19.412Z,50.27
2022-08-17T15:33:35.709Z,48.78
2022-08-17T15:35:39.134Z,48.38
2022-08-17T15:37:42.616Z,47.37
2022-08-17T15:39:46.123Z,47.48
2022-08-17T15:41:58.781Z,46.82
2022-08-17T15:44:02.615Z,46.83
2022-08-17T15:46:10.808Z,46.28
2022-08-17T15:48:14.672Z,46.46
2022-08-17T15:50:18.314Z,47.06
2022-08-17T15:52:24.618Z,47.28
2022-08-17T15:54:31.620Z,46.46
2022-08-17T15:56:38.227Z,46.52
2022-08-17T15:58:44.222Z,46.55
2022-08-17T16:00:53.317Z,46.55
2022-08-17T16:03:46.861Z,46.47
2022-08-17T16:05:36.128Z,45.59
2022-08-17T16:07:40.861Z,46.45
2022-08-17T16:09:44.567Z,46.04
2022-08-17T16:11:51.952Z,46.33
2022-08-17T16:14:00.288Z,45.42
2022-08-17T16:16:04.365Z,45.78
2022-08-17T16:18:07.796Z,46.32
2022-08-17T16:20:19.662Z,44.93
2022-08-17T16:22:32.507Z,45.12
2022-08-17T16:24:37.121Z,45.34
2022-08-17T16:26:40.531Z,44.91
2022-08-17T16:28:44.051Z,45.56
2022-08-17T16:30:48.882Z,45.84
2022-08-17T16:32:53.556Z,45.71
2022-08-17T16:34:57.059Z,45.09
2022-08-17T16:37:00.516Z,44.58
2022-08-17T16:39:04.720Z,44.93
2022-08-17T16:41:08.160Z,46.06
2022-08-17T16:43:12.098Z,46.13
2022-08-17T16:45:19.250Z,46.30
2022-08-17T16:47:25.087Z,46.85
2022-08-17T16:49:36.238Z,47.38
2022-08-17T16:51:41.430Z,47.17
2022-08-17T16:53:44.884Z,46.34
2022-08-17T16:55:58.449Z,46.44
2022-08-17T16:58:02.414Z,45.82
2022-08-17T17:00:07.473Z,45.80
2022-08-17T17:02:11.730Z,45.39
2022-08-17T17:04:19.495Z,44.95
2022-08-17T17:06:37.359Z,44.87
2022-08-17T17:08:46.683Z,45.60
2022-08-17T17:10:52.642Z,44.94
2022-08-17T17:13:02.530Z,45.26
2022-08-17T17:15:09.180Z,45.29
2022-08-17T17:17:26.190Z,45.59
2022-08-17T17:19:39.065Z,45.70
2022-08-17T17:21:51.741Z,45.85
2022-08-17T17:23:59.792Z,46.15
2022-08-17T17:26:12.662Z,45.89
2022-08-17T17:28:31.189Z,45.89
2022-08-17T17:30:53.785Z,46.25
2022-08-17T17:33:02.868Z,46.64
2022-08-17T17:35:12.070Z,46.38
2022-08-17T17:37:23.738Z,46.45
2022-08-17T17:39:36.284Z,46.31
2022-08-17T17:41:47.141Z,45.73
2022-08-17T17:43:53.986Z,45.52
2022-08-17T17:46:28.085Z,45.21
2022-08-17T17:48:24.744Z,45.86
2022-08-17T17:50:36.264Z,46.14
2022-08-17T17:52:48.073Z,46.18
2022-08-17T17:55:05.286Z,46.31
2022-08-17T17:57:17.622Z,46.75
2022-08-17T17:59:28.681Z,46.76
2022-08-17T18:01:45.828Z,47.03
2022-08-17T18:04:04.712Z,47.42
2022-08-17T18:06:31.632Z,48.44
2022-08-17T18:08:47.780Z,48.68
2022-08-17T18:11:06.234Z,48.55
2022-08-17T18:13:17.983Z,48.37
2022-08-17T18:15:29.490Z,48.65
2022-08-17T18:17:33.435Z,48.85
2022-08-17T18:19:38.865Z,49.06
2022-08-17T18:21:48.412Z,49.15
2022-08-17T18:23:57.288Z,49.58
2022-08-17T18:26:02.326Z,49.97
2022-08-17T18:28:05.939Z,50.42
2022-08-17T18:30:27.027Z,50.50
2022-08-17T18:32:39.080Z,50.57
2022-08-17T18:34:49.935Z,50.61
2022-08-17T18:36:54.751Z,50.89
2022-08-17T18:39:15.549Z,50.96
2022-08-17T18:41:23.651Z,51.04
2022-08-17T18:43:44.202Z,51.76
2022-08-17T18:45:55.247Z,51.64
2022-08-17T18:47:58.940Z,51.67
2022-08-17T18:50:25.483Z,51.17
2022-08-17T18:52:32.548Z,51.70
2022-08-17T18:54:37.322Z,51.77
2022-08-17T18:56:44.069Z,52.03
2022-08-17T18:58:53.122Z,52.02
2022-08-17T19:01:00.257Z,52.36
2022-08-17T19:03:06.449Z,52.21
2022-08-17T19:05:29.923Z,52.64
2022-08-17T19:07:38.108Z,52.41
2022-08-17T19:09:45.130Z,52.75
2022-08-17T19:11:48.646Z,52.60
2022-08-17T19:13:57.758Z,52.75
2022-08-17T19:16:11.674Z,52.75
2022-08-17T19:18:22.701Z,52.69
2022-08-17T19:20:31.913Z,52.59
2022-08-17T19:22:50.146Z,53.44
2022-08-17T19:25:02.764Z,53.11
2022-08-17T19:27:15.120Z,52.58
2022-08-17T19:29:25.762Z,54.05
2022-08-17T19:31:31.898Z,53.13
2022-08-17T19:33:37.452Z,53.27
2022-08-17T19:35:50.278Z,53.24
2022-08-17T19:38:03.805Z,53.35
2022-08-17T19:40:41.692Z,53.91
2022-08-17T19:42:53.661Z,53.28
2022-08-17T19:45:03.227Z,53.64
2022-08-17T19:47:30.463Z,53.30
2022-08-17T19:49:50.619Z,54.37
2022-08-17T19:51:59.231Z,53.38
2022-08-17T19:54:14.118Z,53.96
2022-08-17T19:56:24.037Z,53.58
2022-08-17T19:58:48.646Z,53.89
2022-08-17T20:00:56.068Z,54.30
2022-08-17T20:03:06.209Z,53.63
2022-08-17T20:05:16.613Z,54.51
2022-08-17T20:07:23.304Z,54.03
2022-08-17T20:09:35.498Z,54.20
2022-08-17T20:11:43.053Z,54.46
2022-08-17T20:13:53.230Z,54.95
2022-08-17T20:15:56.673Z,55.00
2022-08-17T20:18:02.171Z,55.49
2022-08-17T20:20:20.689Z,55.79
2022-08-17T20:22:31.761Z,55.28
2022-08-17T20:25:02.700Z,55.48
2022-08-17T20:27:16.254Z,55.98
2022-08-17T20:29:39.464Z,55.48
2022-08-17T20:31:48.875Z,55.71
2022-08-17T20:33:52.270Z,56.05
2022-08-17T20:36:17.069Z,55.34
2022-08-17T20:38:40.590Z,55.71
2022-08-17T20:41:13.210Z,55.62
2022-08-17T20:43:51.742Z,55.67
2022-08-17T20:46:22.058Z,55.74
2022-08-17T20:48:38.284Z,55.89
2022-08-17T20:50:48.169Z,56.14
2022-08-17T20:52:54.146Z,55.82
2022-08-17T20:54:58.229Z,56.59
2022-08-17T20:57:06.128Z,56.71
2022-08-17T20:59:55.177Z,56.55
2022-08-17T21:02:18.295Z,56.75
2022-08-17T21:04:44.838Z,56.98
2022-08-17T21:07:29.044Z,56.67
2022-08-17T21:09:32.580Z,56.57
2022-08-17T21:12:03.948Z,56.43
2022-08-17T21:14:20.507Z,56.57
2022-08-17T21:16:34.320Z,57.03
2022-08-17T21:18:51.512Z,57.38
2022-08-17T21:21:06.609Z,57.79
2022-08-17T21:23:30.600Z,57.38
2022-08-17T21:25:52.817Z,57.74
2022-08-17T21:28:08.249Z,57.71
2022-08-17T21:30:24.591Z,57.85
2022-08-17T21:32:31.311Z,57.71
2022-08-17T21:34:36.998Z,57.82
2022-08-17T21:36:40.523Z,58.31
2022-08-17T21:38:57.698Z,58.43
2022-08-17T21:41:02.281Z,58.29
2022-08-17T21:43:23.579Z,58.40
2022-08-17T21:45:35.044Z,58.74
2022-08-17T21:47:47.487Z,58.52
2022-08-17T21:49:50.983Z,58.78
2022-08-17T21:51:56.869Z,58.26
2022-08-17T21:54:03.877Z,59.26
2022-08-17T21:56:09.060Z,58.74
2022-08-17T21:58:29.842Z,58.74
2022-08-17T22:00:34.646Z,58.74
2022-08-17T22:02:42.684Z,58.76
2022-08-17T22:04:57.631Z,58.70
2022-08-17T22:07:03.469Z,59.38
2022-08-17T22:09:14.288Z,59.76
2022-08-17T22:11:18.513Z,59.85
2022-08-17T22:13:24.104Z,60.04
2022-08-17T22:15:39.801Z,60.56
2022-08-17T22:17:47.570Z,60.58
2022-08-17T22:19:53.208Z,60.43
2022-08-17T22:22:04.153Z,60.82
2022-08-17T22:24:17.974Z,61.15
2022-08-17T22:26:23.594Z,61.68
2022-08-17T22:28:39.578Z,61.53
2022-08-17T22:30:59.531Z,61.95
2022-08-17T22:33:29.696Z,61.96
2022-08-17T22:35:43.974Z,62.19
2022-08-17T22:37:47.875Z,61.55
2022-08-17T22:39:58.726Z,62.52
2022-08-17T22:42:02.488Z,63.54
2022-08-17T22:44:28.211Z,63.71
2022-08-17T22:46:48.668Z,63.45
2022-08-17T22:48:57.613Z,62.59
2022-08-17T22:51:12.578Z,63.25
2022-08-17T22:53:48.717Z,63.08
2022-08-17T22:56:15.457Z,62.62
2022-08-17T22:58:40.635Z,62.61
2022-08-17T23:00:46.411Z,62.25
2022-08-17T23:03:09.588Z,63.45
2022-08-17T23:05:21.551Z,63.98
2022-08-17T23:07:25.082Z,64.65
2022-08-17T23:09:29.875Z,64.72
2022-08-17T23:11:49.307Z,64.79
2022-08-17T23:13:54.945Z,64.67
2022-08-17T23:15:58.379Z,65.48
2022-08-17T23:18:04.570Z,64.97
2022-08-17T23:20:13.077Z,64.60
2022-08-17T23:22:16.605Z,64.63
2022-08-17T23:24:23.796Z,64.32
2022-08-17T23:26:27.650Z,64.37
2022-08-17T23:28:31.132Z,64.14
2022-08-17T23:30:39.326Z,64.32
2022-08-17T23:32:53.322Z,63.88
2022-08-17T23:34:59.155Z,64.20
2022-08-17T23:37:04.448Z,64.39
2022-08-17T23:39:08.726Z,63.87
2022-08-17T23:41:16.330Z,63.94
2022-08-17T23:43:25.426Z,64.11
2022-08-17T23:45:30.913Z,64.01
2022-08-17T23:47:34.762Z,63.77
2022-08-17T23:49:41.312Z,64.21
2022-08-17T23:51:45.735Z,64.52
2022-08-17T23:53:55.464Z,64.60
2022-08-17T23:56:09.605Z,64.58
2022-08-17T23:58:14.364Z,64.71
